Time;durP1;ratioP1;P1;durP2;ratioP2;P2;SDS_P1;SDS_P2;PMS_P1;PMS_P2;Temp;Humidity;BMP_temperature;BMP_pressure;BME280_temperature;BME280_humidity;BME280_pressure;Samples;Min_cycle;Max_cycle;Signal;HPM_P1;HPM_P2
2021/04/06 00:00:39;;;;;;;1.30;1.13;;;1.00;98.00;;;;;;5111775;28;20933;-66
2021/04/06 00:03:09;;;;;;;1.20;1.00;;;1.00;98.00;;;;;;5109002;28;20450;-66
2021/04/06 00:05:39;;;;;;;2.83;1.33;;;1.00;98.00;;;;;;5111656;28;20461;-67
2021/04/06 00:08:06;;;;;;;1.57;1.30;;;1.00;98.00;;;;;;5108795;28;20490;-67
2021/04/06 00:10:38;;;;;;;1.20;1.00;;;1.10;98.00;;;;;;5111440;28;20454;-66
2021/04/06 00:13:06;;;;;;;1.20;1.10;;;1.20;98.00;;;;;;5109079;28;20503;-67
2021/04/06 00:15:34;;;;;;;1.20;1.10;;;1.10;98.00;;;;;;5111462;28;20465;-66
2021/04/06 00:18:03;;;;;;;1.47;1.10;;;1.10;98.00;;;;;;5108764;28;20482;-66
2021/04/06 00:20:34;;;;;;;1.20;1.00;;;1.20;98.00;;;;;;5111288;28;21040;-66
2021/04/06 00:23:05;;;;;;;1.20;1.00;;;1.20;98.00;;;;;;5108720;28;20469;-67
2021/04/06 00:25:34;;;;;;;1.20;0.93;;;1.20;98.00;;;;;;5111451;28;20456;-66
2021/04/06 00:28:05;;;;;;;1.20;1.00;;;1.10;98.00;;;;;;5112208;28;20829;-66
2021/04/06 00:30:35;;;;;;;1.20;1.13;;;1.10;98.00;;;;;;5115056;28;20997;-67
2021/04/06 00:33:05;;;;;;;1.93;1.30;;;1.10;98.00;;;;;;5112273;28;20462;-66
2021/04/06 00:35:34;;;;;;;1.20;1.00;;;1.20;98.00;;;;;;5115010;28;20492;-66
2021/04/06 00:38:04;;;;;;;1.20;1.00;;;1.20;98.00;;;;;;5112234;28;20819;-66
2021/04/06 00:40:34;;;;;;;1.20;1.00;;;1.10;98.00;;;;;;5114862;28;20460;-66
2021/04/06 00:43:03;;;;;;;1.20;1.07;;;1.00;98.00;;;;;;5112461;28;20455;-66
2021/04/06 00:45:36;;;;;;;1.20;1.10;;;0.90;98.00;;;;;;5114901;28;20799;-66
2021/04/06 00:48:10;;;;;;;1.20;1.00;;;0.80;98.00;;;;;;5112168;28;20480;-66
2021/04/06 00:50:39;;;;;;;1.20;1.10;;;0.70;98.00;;;;;;5114929;28;20494;-66
2021/04/06 00:53:07;;;;;;;1.20;1.20;;;0.80;98.00;;;;;;5112120;28;20464;-66
2021/04/06 00:55:36;;;;;;;1.20;1.00;;;0.70;98.00;;;;;;5114574;28;20498;-67
2021/04/06 00:58:08;;;;;;;1.20;1.00;;;0.70;98.00;;;;;;5111945;28;21112;-66
2021/04/06 01:00:37;;;;;;;1.20;1.00;;;0.70;98.00;;;;;;5114635;28;20885;-66
2021/04/06 01:03:06;;;;;;;1.20;1.03;;;0.70;98.00;;;;;;5110761;28;21011;-66
2021/04/06 01:05:37;;;;;;;1.20;1.00;;;0.70;98.00;;;;;;5114487;28;20455;-66
2021/04/06 01:08:06;;;;;;;1.20;0.90;;;0.60;98.00;;;;;;5111522;28;20999;-67
2021/04/06 01:10:33;;;;;;;1.20;1.00;;;0.70;98.00;;;;;;5114355;28;20461;-66
2021/04/06 01:13:02;;;;;;;1.20;1.00;;;0.60;98.00;;;;;;5111746;28;20463;-66
2021/04/06 01:15:28;;;;;;;1.20;1.00;;;0.60;98.00;;;;;;5114074;28;20465;-66
2021/04/06 01:17:56;;;;;;;1.20;1.00;;;0.50;98.00;;;;;;5111355;28;20531;-66
2021/04/06 01:20:26;;;;;;;1.20;1.00;;;0.60;98.00;;;;;;5114114;28;20462;-66
2021/04/06 01:22:57;;;;;;;1.20;1.00;;;0.50;98.00;;;;;;5111612;28;20450;-66
2021/04/06 01:25:29;;;;;;;1.20;1.00;;;0.40;98.00;;;;;;5114009;27;20568;-66
2021/04/06 01:28:03;;;;;;;1.50;1.17;;;0.40;98.00;;;;;;5111231;28;21108;-66
2021/04/06 01:30:43;;;;;;;1.30;1.20;;;0.40;98.00;;;;;;5113825;28;20460;-66
2021/04/06 01:33:11;;;;;;;1.20;1.00;;;0.50;98.00;;;;;;5109892;28;20457;-66
2021/04/06 01:35:37;;;;;;;1.20;1.00;;;0.60;98.00;;;;;;5113536;28;20486;-66
2021/04/06 01:38:04;;;;;;;1.20;1.00;;;0.60;98.00;;;;;;5110092;28;20484;-66
2021/04/06 01:40:36;;;;;;;1.20;1.00;;;0.60;98.00;;;;;;5114053;28;20461;-66
2021/04/06 01:43:03;;;;;;;1.20;1.00;;;0.60;98.00;;;;;;5110991;28;20454;-66
2021/04/06 01:45:31;;;;;;;1.20;1.00;;;0.70;98.00;;;;;;5113708;28;20547;-66
2021/04/06 01:47:58;;;;;;;1.20;1.10;;;0.70;98.00;;;;;;5111100;28;20470;-66
2021/04/06 01:50:26;;;;;;;1.20;1.13;;;0.70;98.00;;;;;;5113762;28;20935;-66
2021/04/06 01:52:53;;;;;;;1.20;1.00;;;0.60;98.00;;;;;;5110803;28;20461;-66
2021/04/06 01:55:32;;;;;;;1.20;1.00;;;0.50;98.00;;;;;;5113545;28;20457;-66
2021/04/06 01:58:00;;;;;;;1.20;1.10;;;0.50;98.00;;;;;;5110884;28;20455;-66
2021/04/06 02:00:33;;;;;;;1.20;1.10;;;0.40;98.00;;;;;;5113391;28;20474;-66
2021/04/06 02:03:04;;;;;;;1.20;1.00;;;0.40;98.00;;;;;;5110765;28;20452;-66
2021/04/06 02:05:33;;;;;;;1.20;1.10;;;0.50;98.00;;;;;;5113315;28;20504;-66
2021/04/06 02:08:06;;;;;;;1.20;1.00;;;0.60;98.00;;;;;;5110559;28;20492;-66
2021/04/06 02:10:37;;;;;;;1.20;1.10;;;0.60;98.00;;;;;;5113203;28;20485;-66
2021/04/06 02:13:09;;;;;;;1.20;1.00;;;0.70;98.00;;;;;;5092885;28;20465;-66
2021/04/06 02:15:36;;;;;;;1.20;1.00;;;0.60;98.00;;;;;;5113195;28;20515;-66
2021/04/06 02:18:03;;;;;;;1.20;0.90;;;0.60;98.00;;;;;;5108783;28;20459;-66
2021/04/06 02:20:29;;;;;;;1.20;0.90;;;0.70;98.00;;;;;;5112874;28;20457;-66
2021/04/06 02:22:58;;;;;;;1.20;1.00;;;0.80;98.00;;;;;;5110329;28;20457;-66
2021/04/06 02:25:24;;;;;;;1.20;1.00;;;0.80;98.00;;;;;;5112817;28;20481;-66
2021/04/06 02:27:52;;;;;;;1.20;1.00;;;0.90;98.00;;;;;;5110576;28;20468;-66
2021/04/06 02:30:19;;;;;;;1.20;1.00;;;0.80;98.00;;;;;;5112792;28;20955;-66
2021/04/06 02:32:46;;;;;;;1.20;1.00;;;0.60;98.00;;;;;;5110626;28;20467;-66
2021/04/06 02:35:14;;;;;;;1.40;1.33;;;0.50;98.00;;;;;;5112949;28;20500;-66
2021/04/06 02:37:43;;;;;;;1.20;1.00;;;0.50;98.00;;;;;;5110423;28;20467;-66
2021/04/06 02:40:11;;;;;;;1.20;0.97;;;0.40;98.00;;;;;;5112676;28;20455;-66
2021/04/06 02:42:39;;;;;;;1.73;1.63;;;0.40;98.00;;;;;;5110180;28;20461;-66
2021/04/06 02:45:13;;;;;;;1.20;1.00;;;0.40;98.00;;;;;;5112571;28;20475;-66
2021/04/06 02:47:43;;;;;;;1.20;1.10;;;0.40;98.00;;;;;;5109192;28;20460;-66
2021/04/06 02:50:12;;;;;;;1.20;1.00;;;0.20;98.00;;;;;;5111857;28;20522;-66
2021/04/06 02:52:40;;;;;;;1.20;1.00;;;0.00;98.00;;;;;;5109908;28;20483;-66
2021/04/06 02:55:10;;;;;;;1.20;1.00;;;-0.10;98.00;;;;;;5112071;28;20451;-66
2021/04/06 02:57:41;;;;;;;1.20;0.90;;;-0.10;98.00;;;;;;5109349;28;20463;-66
2021/04/06 03:00:10;;;;;;;1.20;1.00;;;-0.10;98.00;;;;;;5111936;28;20492;-66
2021/04/06 03:02:40;;;;;;;1.20;1.00;;;-0.10;98.00;;;;;;5108992;28;20847;-66
2021/04/06 03:05:08;;;;;;;1.20;1.00;;;-0.10;98.00;;;;;;5111730;28;20458;-66
2021/04/06 03:07:45;;;;;;;2.13;1.20;;;-0.10;98.00;;;;;;5109694;28;20855;-66
2021/04/06 03:10:19;;;;;;;1.20;1.00;;;-0.10;98.00;;;;;;5111862;28;20495;-66
2021/04/06 03:12:48;;;;;;;1.20;1.00;;;0.00;98.00;;;;;;5109571;28;20465;-66
2021/04/06 03:15:21;;;;;;;1.20;1.00;;;0.10;98.00;;;;;;5112004;28;20956;-66
2021/04/06 03:17:51;;;;;;;1.20;1.00;;;0.10;98.00;;;;;;5109262;28;20549;-66
2021/04/06 03:20:19;;;;;;;1.20;1.00;;;0.00;98.00;;;;;;5111989;28;20466;-66
2021/04/06 03:22:47;;;;;;;1.20;1.00;;;-0.10;98.00;;;;;;5109108;28;20455;-66
2021/04/06 03:25:13;;;;;;;1.20;1.00;;;-0.10;98.00;;;;;;5111896;28;20445;-66
2021/04/06 03:27:43;;;;;;;1.20;1.00;;;-0.10;98.00;;;;;;5109116;28;20451;-66
2021/04/06 03:30:11;;;;;;;1.20;1.00;;;-0.10;98.00;;;;;;5112083;28;20488;-66
2021/04/06 03:32:40;;;;;;;1.67;1.37;;;-0.10;98.00;;;;;;5109462;28;20213;-66
2021/04/06 03:35:08;;;;;;;1.20;1.00;;;-0.10;98.00;;;;;;5112121;28;20455;-66
2021/04/06 03:37:36;;;;;;;1.20;1.10;;;-0.10;98.00;;;;;;5109775;28;20954;-66
2021/04/06 03:40:04;;;;;;;1.20;1.10;;;-0.20;98.00;;;;;;5112046;28;20945;-66
2021/04/06 03:42:31;;;;;;;1.20;1.00;;;-0.20;98.00;;;;;;5109445;28;20456;-66
2021/04/06 03:45:09;;;;;;;1.20;1.00;;;-0.10;98.00;;;;;;5111703;28;20201;-66
2021/04/06 03:47:58;;;;;;;1.20;1.00;;;-0.10;98.00;;;;;;5109046;28;21181;-66
2021/04/06 03:50:35;;;;;;;1.20;1.07;;;-0.20;98.00;;;;;;5106833;28;20241;-66
2021/04/06 03:53:02;;;;;;;1.20;1.03;;;-0.10;98.00;;;;;;5108932;28;20506;-66
2021/04/06 03:55:29;;;;;;;1.20;1.00;;;-0.20;98.00;;;;;;5111659;28;20455;-66
2021/04/06 03:58:04;;;;;;;1.20;1.00;;;-0.10;98.00;;;;;;5109186;28;20516;-66
2021/04/06 04:00:31;;;;;;;1.20;1.00;;;-0.10;98.00;;;;;;5111725;28;20888;-66
2021/04/06 04:03:00;;;;;;;1.20;1.00;;;-0.10;98.00;;;;;;5112763;28;20245;-66
2021/04/06 04:05:28;;;;;;;1.20;0.90;;;0.00;98.00;;;;;;5115584;28;20451;-66
2021/04/06 04:07:55;;;;;;;1.20;1.00;;;0.00;98.00;;;;;;5113092;28;20201;-66
2021/04/06 04:10:22;;;;;;;1.20;1.00;;;0.00;98.00;;;;;;5115497;28;20942;-66
2021/04/06 04:12:49;;;;;;;1.20;1.10;;;-0.10;98.00;;;;;;5112715;28;20454;-66
2021/04/06 04:15:16;;;;;;;1.20;1.20;;;0.00;98.00;;;;;;5115229;28;20946;-66
2021/04/06 04:17:42;;;;;;;1.20;1.00;;;-0.10;98.00;;;;;;5112766;28;20476;-66
2021/04/06 04:20:11;;;;;;;1.20;1.00;;;0.00;98.00;;;;;;5115168;28;20455;-66
2021/04/06 04:22:38;;;;;;;1.20;1.00;;;-0.10;98.00;;;;;;5112392;28;21064;-66
2021/04/06 04:25:06;;;;;;;1.40;1.20;;;0.00;98.00;;;;;;5115018;28;20531;-66
2021/04/06 04:27:32;;;;;;;1.20;1.00;;;-0.10;98.00;;;;;;5112790;28;20451;-66
2021/04/06 04:29:59;;;;;;;1.20;1.00;;;0.00;98.00;;;;;;5113204;28;20996;-66
2021/04/06 04:32:26;;;;;;;1.30;1.10;;;0.00;98.00;;;;;;5112352;28;20486;-66
2021/04/06 04:34:52;;;;;;;1.20;1.00;;;-0.10;98.00;;;;;;5115100;28;20864;-66
2021/04/06 04:37:22;;;;;;;1.20;0.97;;;0.00;98.00;;;;;;5112712;28;20494;-66
2021/04/06 04:39:48;;;;;;;1.20;0.90;;;0.00;98.00;;;;;;5114618;28;20455;-66
2021/04/06 04:42:15;;;;;;;1.20;1.10;;;-0.10;98.00;;;;;;5112870;28;20505;-66
2021/04/06 04:44:42;;;;;;;1.20;1.00;;;-0.10;98.00;;;;;;5113565;28;20793;-66
2021/04/06 04:47:11;;;;;;;1.20;1.10;;;-0.20;98.00;;;;;;5112092;28;20490;-66
2021/04/06 04:49:39;;;;;;;1.20;1.00;;;-0.20;98.00;;;;;;5113870;28;20561;-66
2021/04/06 04:52:06;;;;;;;1.20;1.10;;;-0.20;98.00;;;;;;5112612;28;20495;-66
2021/04/06 04:54:34;;;;;;;1.20;1.10;;;-0.10;98.00;;;;;;5114681;28;20836;-66
2021/04/06 04:57:03;;;;;;;1.20;1.00;;;-0.10;98.00;;;;;;5111669;28;20460;-66
2021/04/06 04:59:30;;;;;;;1.20;1.00;;;-0.10;98.00;;;;;;5113112;28;20455;-66
2021/04/06 05:01:56;;;;;;;1.20;1.00;;;-0.20;98.00;;;;;;5111534;28;20506;-66
2021/04/06 05:04:28;;;;;;;1.20;1.10;;;-0.10;98.00;;;;;;5114052;28;20527;-66
2021/04/06 05:06:55;;;;;;;1.60;1.50;;;-0.10;98.00;;;;;;5111358;27;20459;-66
2021/04/06 05:09:21;;;;;;;1.20;1.10;;;-0.10;98.00;;;;;;5114510;28;20439;-66
2021/04/06 05:11:48;;;;;;;1.20;1.10;;;-0.10;98.00;;;;;;5111857;28;20489;-66
2021/04/06 05:14:15;;;;;;;1.20;1.08;;;-0.10;98.00;;;;;;5113180;28;20978;-66
2021/04/06 05:16:41;;;;;;;1.20;1.10;;;-0.10;98.00;;;;;;5111418;28;20209;-66
2021/04/06 05:19:08;;;;;;;1.20;1.00;;;-0.10;98.00;;;;;;5114506;28;20455;-66
2021/04/06 05:21:34;;;;;;;1.20;1.00;;;-0.20;98.00;;;;;;5111401;28;20529;-66
2021/04/06 05:24:01;;;;;;;1.20;1.00;;;-0.20;98.00;;;;;;5114349;28;20452;-66
2021/04/06 05:26:27;;;;;;;1.20;1.20;;;-0.20;98.00;;;;;;5111914;28;20767;-66
2021/04/06 05:28:55;;;;;;;1.20;1.00;;;-0.10;98.00;;;;;;5112636;28;20718;-66
2021/04/06 05:31:21;;;;;;;2.20;1.90;;;-0.20;98.00;;;;;;5113822;28;20998;-66
2021/04/06 05:33:48;;;;;;;1.20;1.00;;;-0.20;98.00;;;;;;5111923;28;20544;-66
2021/04/06 05:36:14;;;;;;;1.20;1.00;;;-0.20;98.00;;;;;;5113929;28;20950;-66
2021/04/06 05:38:41;;;;;;;1.20;1.00;;;-0.20;98.00;;;;;;5111134;28;20458;-66
2021/04/06 05:41:08;;;;;;;1.20;1.00;;;-0.10;98.00;;;;;;5113858;28;20562;-66
2021/04/06 05:43:37;;;;;;;1.20;1.00;;;-0.10;98.00;;;;;;5110935;28;20455;-66
2021/04/06 05:46:06;;;;;;;1.20;1.10;;;-0.10;98.00;;;;;;5113561;28;20462;-66
2021/04/06 05:48:34;;;;;;;1.20;1.00;;;-0.10;98.00;;;;;;5111074;28;20225;-66
2021/04/06 05:51:01;;;;;;;1.20;1.00;;;-0.10;98.00;;;;;;5112178;28;20473;-65
2021/04/06 05:53:28;;;;;;;1.40;1.20;;;-0.10;98.00;;;;;;5110819;28;20452;-64
2021/04/06 05:55:59;;;;;;;1.20;1.00;;;-0.10;98.00;;;;;;5113348;28;20455;-67
2021/04/06 05:58:25;;;;;;;1.20;1.00;;;-0.10;98.00;;;;;;5110729;28;20460;-66
2021/04/06 06:00:53;;;;;;;1.20;1.00;;;-0.10;98.00;;;;;;5113342;28;20512;-67
2021/04/06 06:03:21;;;;;;;1.20;1.10;;;0.00;98.00;;;;;;5110465;28;20452;-66
2021/04/06 06:05:51;;;;;;;1.30;1.20;;;-0.10;98.00;;;;;;5113028;28;20459;-66
2021/04/06 06:08:18;;;;;;;1.20;1.00;;;0.00;98.00;;;;;;5109500;28;20647;-66
2021/04/06 06:10:45;;;;;;;1.20;1.03;;;0.00;98.00;;;;;;5113049;28;20491;-66
2021/04/06 06:13:16;;;;;;;1.20;1.00;;;0.10;98.00;;;;;;5110924;28;20455;-66
2021/04/06 06:16:04;;;;;;;1.20;1.00;;;0.20;98.00;;;;;;5113014;28;20867;-66
2021/04/06 06:18:32;;;;;;;1.20;1.00;;;0.20;98.00;;;;;;5110850;28;20456;-66
2021/04/06 06:20:59;;;;;;;1.20;1.00;;;0.30;98.00;;;;;;5113247;28;20459;-66
2021/04/06 06:23:25;;;;;;;1.47;1.10;;;0.40;98.00;;;;;;5110401;28;20959;-66
2021/04/06 06:26:18;;;;;;;4.63;1.77;;;0.50;98.00;;;;;;5112927;28;20816;-67
2021/04/06 06:29:15;;;;;;;1.20;1.10;;;0.50;98.00;;;;;;5110181;28;20864;-67
2021/04/06 06:31:45;;;;;;;1.20;1.00;;;0.50;98.00;;;;;;5108223;28;20879;-67
2021/04/06 06:34:28;;;;;;;1.20;1.00;;;0.60;98.00;;;;;;5112764;28;20454;-66
2021/04/06 06:37:15;;;;;;;1.20;1.00;;;0.70;98.00;;;;;;5110353;28;20456;-66
2021/04/06 06:39:49;;;;;;;1.20;1.00;;;0.70;98.00;;;;;;5112597;28;20457;-67
2021/04/06 06:42:18;;;;;;;1.20;1.00;;;0.60;98.00;;;;;;5110188;28;20495;-66
2021/04/06 06:44:44;;;;;;;1.50;1.20;;;0.70;98.00;;;;;;5112470;28;20862;-66
2021/04/06 06:47:14;;;;;;;1.20;1.10;;;0.80;98.00;;;;;;5110054;28;20552;-66
2021/04/06 06:49:42;;;;;;;1.20;1.00;;;0.80;98.00;;;;;;5112257;28;20487;-66
2021/04/06 06:52:32;;;;;;;1.20;1.00;;;0.80;98.00;;;;;;5109801;28;20457;-66
2021/04/06 06:55:16;;;;;;;1.20;1.00;;;0.90;98.00;;;;;;5112319;28;20936;-66
2021/04/06 06:57:44;;;;;;;1.20;1.00;;;0.90;98.00;;;;;;5109619;28;20914;-66
2021/04/06 07:00:13;;;;;;;1.20;1.00;;;1.00;98.00;;;;;;5111851;28;20471;-66
2021/04/06 07:02:42;;;;;;;1.20;1.10;;;1.00;98.00;;;;;;5109338;28;20560;-66
2021/04/06 07:05:18;;;;;;;1.20;1.00;;;0.90;98.00;;;;;;5111626;28;20882;-66
2021/04/06 07:07:56;;;;;;;1.20;1.00;;;0.90;98.00;;;;;;5109499;28;20824;-67
2021/04/06 07:10:27;;;;;;;1.20;1.10;;;1.10;98.00;;;;;;5111858;28;20575;-67
2021/04/06 07:13:02;;;;;;;1.20;0.90;;;1.20;98.00;;;;;;5109764;28;20501;-67
2021/04/06 07:15:29;;;;;;;1.20;1.00;;;1.10;98.00;;;;;;5111250;28;21102;-66
2021/04/06 07:18:00;;;;;;;1.30;1.20;;;1.00;98.00;;;;;;5108315;28;20459;-67
2021/04/06 07:20:31;;;;;;;1.20;1.10;;;1.00;98.00;;;;;;5111556;28;20902;-65
2021/04/06 07:23:02;;;;;;;1.20;1.10;;;1.00;98.00;;;;;;5109198;28;20824;-66
2021/04/06 07:25:29;;;;;;;1.30;1.20;;;1.10;98.00;;;;;;5111326;28;20495;-66
2021/04/06 07:27:57;;;;;;;1.20;1.00;;;1.10;98.00;;;;;;5108822;28;20458;-66
2021/04/06 07:30:24;;;;;;;1.20;0.97;;;1.00;98.00;;;;;;5111193;28;20847;-66
2021/04/06 07:32:52;;;;;;;1.20;1.00;;;1.10;98.00;;;;;;5108862;28;20484;-66
2021/04/06 07:35:19;;;;;;;2.23;1.47;;;1.60;98.00;;;;;;5111149;28;20457;-66
2021/04/06 07:37:47;;;;;;;1.20;1.10;;;2.00;98.00;;;;;;5112663;28;20458;-71
2021/04/06 07:40:18;;;;;;;1.20;0.90;;;2.00;98.00;;;;;;5115744;28;20452;-68
2021/04/06 07:42:48;;;;;;;1.20;1.00;;;1.80;98.00;;;;;;5111757;28;20457;-67
2021/04/06 07:45:42;;;;;;;3.83;1.67;;;1.80;98.00;;;;;;5113948;28;20454;-65
2021/04/06 07:48:11;;;;;;;1.20;1.00;;;1.70;98.00;;;;;;5113256;28;20953;-65
2021/04/06 07:50:42;;;;;;;1.30;1.13;;;1.60;98.00;;;;;;5114216;28;20485;-65
2021/04/06 07:53:26;;;;;;;1.20;1.20;;;1.70;98.00;;;;;;5111833;28;20457;-65
2021/04/06 07:55:55;;;;;;;1.20;1.00;;;1.70;98.00;;;;;;5114521;28;20458;-66
2021/04/06 07:58:44;;;;;;;1.20;1.00;;;1.70;98.00;;;;;;5113339;28;20478;-66
2021/04/06 08:01:12;;;;;;;1.20;0.93;;;1.80;98.00;;;;;;5115842;28;20512;-66
2021/04/06 08:04:00;;;;;;;1.30;1.07;;;1.90;98.00;;;;;;5112945;28;20457;-66
2021/04/06 08:06:28;;;;;;;1.20;1.00;;;1.90;98.00;;;;;;5115765;28;20480;-66
2021/04/06 08:08:56;;;;;;;1.20;0.97;;;1.90;98.00;;;;;;5113681;28;20552;-66
2021/04/06 08:12:04;;;;;;;3.03;1.60;;;1.80;98.00;;;;;;5115966;28;20457;-66
2021/04/06 08:14:32;;;;;;;1.20;1.00;;;1.80;98.00;;;;;;5115538;28;20505;-66
2021/04/06 08:17:32;;;;;;;1.20;1.00;;;1.60;98.00;;;;;;5113401;28;20506;-66
2021/04/06 08:19:59;;;;;;;1.20;1.03;;;1.60;98.00;;;;;;5115370;28;20472;-66
2021/04/06 08:22:28;;;;;;;1.20;1.00;;;1.70;98.00;;;;;;5112981;28;20796;-66
2021/04/06 08:25:33;;;;;;;1.20;1.00;;;1.80;98.00;;;;;;5115328;28;20931;-66
2021/04/06 08:28:02;;;;;;;1.20;1.00;;;1.70;98.00;;;;;;5112835;28;20461;-65
2021/04/06 08:30:31;;;;;;;1.20;1.00;;;1.80;98.00;;;;;;5115322;28;20488;-66
2021/04/06 08:33:25;;;;;;;1.20;0.90;;;1.90;98.00;;;;;;5112636;28;20940;-66
2021/04/06 08:36:03;;;;;;;1.20;1.00;;;1.90;98.00;;;;;;5115094;28;20936;-66
2021/04/06 08:38:45;;;;;;;1.20;1.10;;;1.90;98.00;;;;;;5112868;28;20456;-66
2021/04/06 08:41:30;;;;;;;1.20;1.00;;;2.00;98.00;;;;;;5114967;28;20461;-66
2021/04/06 08:43:58;;;;;;;1.20;1.00;;;2.00;98.00;;;;;;5112334;28;20540;-66
2021/04/06 08:46:27;;;;;;;1.20;1.10;;;2.10;98.00;;;;;;5114716;28;20465;-66
2021/04/06 08:48:56;;;;;;;1.30;1.20;;;2.10;98.00;;;;;;5112114;28;20476;-66
2021/04/06 08:51:26;;;;;;;2.90;1.97;;;2.10;98.00;;;;;;5115039;28;20514;-66
2021/04/06 08:53:54;;;;;;;1.20;1.00;;;2.10;98.00;;;;;;5112499;28;20808;-66
2021/04/06 08:56:24;;;;;;;1.30;1.00;;;2.10;98.00;;;;;;5114692;28;20598;-66
2021/04/06 08:58:51;;;;;;;1.20;1.00;;;2.10;98.00;;;;;;5110579;28;20528;-66
2021/04/06 09:01:21;;;;;;;1.20;0.93;;;2.10;98.00;;;;;;5114437;28;20461;-66
2021/04/06 09:03:47;;;;;;;1.20;1.00;;;2.10;98.00;;;;;;5110884;28;20474;-66
2021/04/06 09:06:14;;;;;;;1.20;1.00;;;2.10;98.00;;;;;;5114558;28;20455;-66
2021/04/06 09:08:51;;;;;;;1.20;0.97;;;2.20;98.00;;;;;;5111936;28;20455;-66
2021/04/06 09:11:20;;;;;;;1.20;0.97;;;2.20;98.00;;;;;;5113264;28;20978;-66
2021/04/06 09:13:48;;;;;;;1.77;1.20;;;2.20;98.00;;;;;;5111204;28;20461;-66
2021/04/06 09:16:22;;;;;;;1.20;1.00;;;2.10;98.00;;;;;;5114629;28;21026;-66
2021/04/06 09:18:54;;;;;;;1.30;1.00;;;2.10;98.00;;;;;;5110589;28;20854;-66
2021/04/06 09:21:23;;;;;;;1.20;1.00;;;2.10;98.00;;;;;;5114459;28;20493;-66
2021/04/06 09:23:52;;;;;;;1.20;1.10;;;2.00;98.00;;;;;;5111771;28;20465;-66
2021/04/06 09:26:19;;;;;;;2.43;1.53;;;2.00;98.00;;;;;;5114365;28;20458;-66
2021/04/06 09:28:47;;;;;;;1.20;1.00;;;2.10;98.00;;;;;;5111778;28;20454;-66
2021/04/06 09:31:14;;;;;;;1.20;1.00;;;2.10;98.00;;;;;;5114291;28;20490;-66
2021/04/06 09:33:41;;;;;;;1.20;1.00;;;2.10;98.00;;;;;;5111864;28;20490;-66
2021/04/06 09:36:12;;;;;;;1.20;1.00;;;2.20;98.00;;;;;;5114013;28;20470;-66
2021/04/06 09:38:40;;;;;;;1.20;1.00;;;2.30;98.00;;;;;;5111562;28;20708;-66
2021/04/06 09:41:11;;;;;;;1.20;1.10;;;2.20;98.00;;;;;;5114071;28;20450;-66
2021/04/06 09:43:38;;;;;;;1.20;1.00;;;2.20;98.00;;;;;;5110162;28;20944;-66
2021/04/06 09:46:07;;;;;;;1.20;1.00;;;2.20;98.00;;;;;;5113640;28;20462;-66
2021/04/06 09:48:33;;;;;;;1.67;1.27;;;2.10;98.00;;;;;;5111126;28;20454;-66
2021/04/06 09:51:02;;;;;;;1.20;1.00;;;2.20;98.00;;;;;;5113558;28;20462;-66
2021/04/06 09:53:29;;;;;;;1.20;1.00;;;2.30;98.00;;;;;;5110845;28;20957;-66
2021/04/06 09:55:56;;;;;;;1.40;1.40;;;2.40;98.00;;;;;;5113434;28;20481;-66
2021/04/06 09:58:24;;;;;;;1.20;1.20;;;2.50;98.00;;;;;;5110413;28;20481;-66
2021/04/06 10:00:50;;;;;;;1.30;1.10;;;2.70;98.00;;;;;;5113182;28;20455;-66
2021/04/06 10:03:24;;;;;;;1.50;1.40;;;2.70;98.00;;;;;;5110292;28;20946;-66
2021/04/06 10:06:01;;;;;;;1.20;1.03;;;2.70;98.00;;;;;;5111633;28;20450;-66
2021/04/06 10:08:30;;;;;;;1.20;0.90;;;2.70;98.00;;;;;;5110855;28;20487;-66
2021/04/06 10:10:57;;;;;;;1.20;0.90;;;2.80;98.00;;;;;;5112572;28;20522;-66
2021/04/06 10:13:24;;;;;;;1.20;1.00;;;2.90;98.00;;;;;;5110745;28;20467;-66
2021/04/06 10:16:04;;;;;;;1.20;1.00;;;3.00;98.00;;;;;;5112422;28;20818;-66
2021/04/06 10:18:39;;;;;;;1.20;1.00;;;3.10;98.00;;;;;;5110436;28;20451;-66
2021/04/06 10:21:20;;;;;;;1.20;1.00;;;3.20;98.00;;;;;;5112371;28;20947;-66
2021/04/06 10:23:51;;;;;;;1.20;1.00;;;3.30;98.00;;;;;;5110593;28;20451;-66
2021/04/06 10:26:23;;;;;;;1.73;1.23;;;3.20;98.00;;;;;;5112272;28;20462;-66
2021/04/06 10:29:05;;;;;;;1.20;1.10;;;3.00;98.00;;;;;;5110133;28;20949;-66
2021/04/06 10:31:49;;;;;;;1.20;1.00;;;2.90;98.00;;;;;;5112182;28;20459;-66
2021/04/06 10:34:16;;;;;;;1.20;1.10;;;2.90;98.00;;;;;;5110763;28;20878;-66
2021/04/06 10:36:58;;;;;;;1.33;1.17;;;3.00;98.00;;;;;;5112202;28;20827;-66
2021/04/06 10:39:40;;;;;;;1.20;1.00;;;3.00;98.00;;;;;;5110869;28;20600;-65
2021/04/06 10:42:10;;;;;;;1.20;1.10;;;3.00;98.00;;;;;;5110839;28;20462;-66
2021/04/06 10:44:37;;;;;;;1.20;0.90;;;3.10;98.00;;;;;;5111830;28;20458;-66
2021/04/06 10:47:04;;;;;;;1.20;1.00;;;3.40;98.00;;;;;;5109889;28;20471;-66
2021/04/06 10:49:32;;;;;;;1.20;1.00;;;3.60;98.00;;;;;;5111437;28;20502;-66
2021/04/06 10:52:07;;;;;;;1.20;0.90;;;3.90;98.00;;;;;;5109686;28;20496;-66
2021/04/06 10:54:36;;;;;;;1.20;0.93;;;4.10;98.00;;;;;;5111430;28;20470;-66
2021/04/06 10:57:03;;;;;;;1.20;0.90;;;4.30;98.00;;;;;;5109830;28;20493;-66
2021/04/06 10:59:32;;;;;;;1.20;1.00;;;4.30;98.00;;;;;;5111535;28;20455;-66
2021/04/06 11:02:00;;;;;;;1.93;1.40;;;4.40;98.00;;;;;;5110455;28;20458;-66
2021/04/06 11:04:29;;;;;;;1.20;1.00;;;4.30;98.00;;;;;;5111470;28;20459;-66
2021/04/06 11:07:00;;;;;;;1.30;1.10;;;4.50;98.00;;;;;;5111386;28;20448;-66
2021/04/06 11:09:36;;;;;;;1.20;1.00;;;4.60;98.00;;;;;;5111560;28;20474;-66
2021/04/06 11:12:05;;;;;;;1.30;1.20;;;4.60;97.70;;;;;;5110180;28;20462;-67
2021/04/06 11:14:32;;;;;;;1.47;1.10;;;4.70;98.00;;;;;;5111628;28;20846;-66
2021/04/06 11:17:05;;;;;;;1.20;1.00;;;5.20;95.40;;;;;;5110960;28;20455;-66
2021/04/06 11:19:33;;;;;;;1.40;1.20;;;5.50;94.10;;;;;;5111326;28;20456;-66
2021/04/06 11:22:04;;;;;;;1.20;0.90;;;5.90;93.30;;;;;;5110937;28;20451;-66
2021/04/06 11:24:32;;;;;;;1.20;1.00;;;6.00;92.70;;;;;;5111343;28;20451;-66
2021/04/06 11:27:01;;;;;;;1.20;1.00;;;5.70;89.50;;;;;;5111022;28;20853;-67
2021/04/06 11:29:30;;;;;;;1.20;1.00;;;5.50;91.70;;;;;;5111205;28;20486;-66
2021/04/06 11:32:03;;;;;;;1.20;1.00;;;5.20;93.90;;;;;;5111429;28;20452;-66
2021/04/06 11:34:31;;;;;;;1.20;1.00;;;5.20;91.50;;;;;;5111652;28;20450;-66
2021/04/06 11:36:58;;;;;;;1.20;1.00;;;5.00;89.30;;;;;;5093508;28;20602;-66
2021/04/06 11:39:27;;;;;;;1.20;1.00;;;4.90;89.40;;;;;;5110134;28;20511;-66
2021/04/06 11:41:55;;;;;;;1.20;0.90;;;4.80;87.60;;;;;;5111202;28;21061;-67
2021/04/06 11:44:22;;;;;;;1.40;1.20;;;5.00;92.30;;;;;;5107888;28;20828;-66
2021/04/06 11:46:49;;;;;;;1.40;1.20;;;5.40;87.70;;;;;;5110625;28;20889;-66
2021/04/06 11:49:18;;;;;;;1.50;1.30;;;5.90;88.40;;;;;;5108121;28;20538;-66
2021/04/06 11:51:47;;;;;;;1.20;1.00;;;6.20;88.30;;;;;;5111089;28;20533;-66
2021/04/06 11:54:15;;;;;;;1.33;1.00;;;6.60;87.20;;;;;;5109467;28;20482;-65
2021/04/06 11:56:43;;;;;;;1.20;1.00;;;6.70;86.80;;;;;;5110847;28;20506;-65
2021/04/06 11:59:11;;;;;;;1.20;1.00;;;7.00;86.50;;;;;;5109226;28;20467;-65
2021/04/06 12:01:39;;;;;;;1.20;1.00;;;7.30;88.50;;;;;;5110913;28;20496;-65
2021/04/06 12:04:06;;;;;;;1.30;1.10;;;7.10;84.10;;;;;;5090928;28;20782;-65
2021/04/06 12:06:32;;;;;;;1.20;1.00;;;7.10;81.60;;;;;;5110926;28;20853;-65
2021/04/06 12:08:59;;;;;;;1.20;0.90;;;6.90;84.50;;;;;;5108980;28;20472;-65
2021/04/06 12:11:26;;;;;;;1.20;1.00;;;6.60;83.70;;;;;;5110699;28;20943;-65
2021/04/06 12:13:54;;;;;;;1.20;0.90;;;6.70;81.80;;;;;;5109067;28;20458;-65
2021/04/06 12:16:20;;;;;;;1.20;1.00;;;6.70;84.00;;;;;;5110718;28;20464;-65
2021/04/06 12:18:47;;;;;;;1.20;1.00;;;6.70;83.20;;;;;;5109240;28;20532;-65
2021/04/06 12:21:13;;;;;;;1.20;1.00;;;7.00;79.90;;;;;;5110662;28;20459;-65
2021/04/06 12:23:40;;;;;;;1.30;1.10;;;7.00;79.60;;;;;;5112191;28;20451;-65
2021/04/06 12:26:08;;;;;;;1.20;0.90;;;7.10;79.90;;;;;;5114286;28;20552;-65
2021/04/06 12:28:35;;;;;;;1.20;1.00;;;7.30;84.70;;;;;;5111195;28;20967;-65
2021/04/06 12:31:05;;;;;;;1.43;1.30;;;7.10;79.00;;;;;;5114328;28;20487;-65
2021/04/06 12:33:32;;;;;;;1.20;1.00;;;7.20;78.50;;;;;;5112703;28;20490;-65
2021/04/06 12:35:59;;;;;;;1.20;1.00;;;7.20;78.40;;;;;;5114345;28;20449;-65
2021/04/06 12:38:26;;;;;;;1.20;1.00;;;7.30;83.60;;;;;;5112388;28;20477;-65
2021/04/06 12:40:52;;;;;;;1.20;1.10;;;7.20;80.90;;;;;;5114165;28;20488;-65
2021/04/06 12:43:19;;;;;;;1.20;1.00;;;7.00;79.30;;;;;;5111075;28;20458;-65
2021/04/06 12:45:46;;;;;;;1.20;1.00;;;7.00;79.00;;;;;;5114139;28;20476;-65
2021/04/06 12:48:13;;;;;;;1.20;1.00;;;7.10;78.90;;;;;;5093950;28;20503;-65
2021/04/06 12:50:40;;;;;;;1.20;1.00;;;7.30;79.20;;;;;;5114160;28;20518;-65
2021/04/06 12:53:07;;;;;;;1.20;1.00;;;7.50;76.80;;;;;;5110405;28;20455;-65
2021/04/06 12:55:34;;;;;;;1.83;1.10;;;7.70;78.30;;;;;;5114063;28;20454;-65
2021/04/06 12:58:00;;;;;;;1.20;1.00;;;7.90;76.60;;;;;;5112903;28;20960;-64
2021/04/06 13:00:28;;;;;;;3.00;1.10;;;7.90;75.40;;;;;;5114195;28;20792;-64
2021/04/06 13:02:54;;;;;;;1.20;1.03;;;7.90;76.30;;;;;;5112995;28;20461;-65
2021/04/06 13:05:22;;;;;;;1.20;1.00;;;7.80;77.30;;;;;;5113237;28;20455;-65
2021/04/06 13:07:48;;;;;;;1.20;1.00;;;7.90;77.70;;;;;;5111969;28;20895;-65
2021/04/06 13:10:17;;;;;;;1.20;1.00;;;8.10;75.10;;;;;;5113291;28;20476;-65